This is the latest recevied weather packets stored in our database for station/object KD8ZLZ. If no packets are shown the sender has not sent any weather packets the latest 10 day(s).
| Time | Temp. | Humidity | Pressure | Rain* | Wind** | Luminosity | Snow |
|---|---|---|---|---|---|---|---|
| 1778337935 | 16.67° C | 67% | 1005.8 hPa | 0 mm | - | - | - |
| 1778337635 | 17.22° C | 67% | 1005.8 hPa | 0 mm | - | - | - |
| 1778336736 | 16.67° C | 71% | 1006.2 hPa | 0 mm | - | - | - |
| 1778335235 | 15.56° C | 74% | 1006.5 hPa | 0 mm | - | - | - |
| 1778334056 | 14.44° C | 79% | 1006.8 hPa | 0 mm | - | - | - |
| 1778331655 | 13.33° C | 84% | 1006.8 hPa | 0 mm | - | - | - |
| 1778331356 | 13.33° C | 84% | 1006.8 hPa | 0 mm | - | - | - |
| 1778329855 | 12.22° C | 88% | 1007.1 hPa | 0 mm | - | - | - |
| 1778329535 | 12.22° C | 89% | 1007.1 hPa | 0 mm | - | - | - |
| 1778328935 | 11.67° C | 90% | 1006.7 hPa | 0 mm | - | - | - |
| 1778326535 | 11.11° C | 92% | 1007.2 hPa | 0 mm | - | - | - |
| 1778326235 | 11.11° C | 92% | 1007.2 hPa | 0 mm | - | - | - |
| 1778325635 | 11.11° C | 93% | 1007.2 hPa | 0 mm | - | - | - |
| 1778324435 | 11.11° C | 93% | 1007.2 hPa | 0 mm | - | - | - |
| 1778323535 | 10.56° C | 95% | 1007.2 hPa | 0 mm | - | - | - |
| 1778321135 | 10.56° C | 96% | 1007.1 hPa | 0 mm | - | - | - |
| 1778320835 | 10.56° C | 96% | 1007.1 hPa | 0 mm | - | - | - |
| 1778319635 | 10.56° C | 96% | 1007.1 hPa | 0 mm | - | - | - |
| 1778319335 | 10.56° C | 96% | 1006.8 hPa | 0 mm | - | - | - |
| 1778316035 | 10° C | 94% | 1007.5 hPa | 0 mm | - | - | - |
| 1778315435 | 10° C | 94% | 1007.4 hPa | 0 mm | - | - | - |
| 1778314535 | 10° C | 95% | 1007.4 hPa | 0 mm | - | - | - |
| 1778311535 | 10° C | 92% | 1007.7 hPa | 0 mm | - | - | - |
| 1778311255 | 10° C | 92% | 1007.7 hPa | 0 mm | - | - | - |
| 1778307335 | 8.89° C | 91% | 1008.3 hPa | 0 mm | - | - | - |
* Rain latest hour (hover to see other rain measurements)
** Current wind speed in m/s (hover to see current wind gust speed)